sensor_id;sensor_type;location;lat;lon;timestamp;P1;durP1;ratioP1;P2;durP2;ratioP2
35578;SDS011;21687;48.900;9.188;2023-08-30T00:01:08;28.13;;;25.40;;
35578;SDS011;21687;48.900;9.188;2023-08-30T00:03:35;26.73;;;24.23;;
35578;SDS011;21687;48.900;9.188;2023-08-30T00:06:02;26.43;;;24.03;;
35578;SDS011;21687;48.900;9.188;2023-08-30T00:08:30;28.30;;;25.70;;
35578;SDS011;21687;48.900;9.188;2023-08-30T00:10:57;29.67;;;26.63;;
35578;SDS011;21687;48.900;9.188;2023-08-30T00:13:24;29.90;;;26.90;;
35578;SDS011;21687;48.900;9.188;2023-08-30T00:15:51;31.57;;;28.53;;
35578;SDS011;21687;48.900;9.188;2023-08-30T00:18:18;32.17;;;28.70;;
35578;SDS011;21687;48.900;9.188;2023-08-30T00:20:44;32.17;;;28.97;;
35578;SDS011;21687;48.900;9.188;2023-08-30T00:23:11;33.73;;;30.07;;
35578;SDS011;21687;48.900;9.188;2023-08-30T00:25:37;32.90;;;29.70;;
35578;SDS011;21687;48.900;9.188;2023-08-30T00:28:03;34.00;;;30.50;;
35578;SDS011;21687;48.900;9.188;2023-08-30T00:30:31;31.87;;;28.73;;
35578;SDS011;21687;48.900;9.188;2023-08-30T00:32:58;33.57;;;30.17;;
35578;SDS011;21687;48.900;9.188;2023-08-30T00:35:24;33.80;;;30.40;;
35578;SDS011;21687;48.900;9.188;2023-08-30T00:37:50;33.60;;;30.03;;
35578;SDS011;21687;48.900;9.188;2023-08-30T00:40:16;33.33;;;30.03;;
35578;SDS011;21687;48.900;9.188;2023-08-30T00:42:43;31.93;;;28.73;;
35578;SDS011;21687;48.900;9.188;2023-08-30T00:45:09;33.23;;;29.73;;
35578;SDS011;21687;48.900;9.188;2023-08-30T00:47:35;31.37;;;28.17;;
35578;SDS011;21687;48.900;9.188;2023-08-30T00:50:02;31.67;;;28.67;;
35578;SDS011;21687;48.900;9.188;2023-08-30T00:52:28;32.07;;;28.57;;
35578;SDS011;21687;48.900;9.188;2023-08-30T00:54:55;29.80;;;26.90;;
35578;SDS011;21687;48.900;9.188;2023-08-30T00:57:21;29.73;;;26.93;;
35578;SDS011;21687;48.900;9.188;2023-08-30T00:59:47;29.13;;;26.43;;
35578;SDS011;21687;48.900;9.188;2023-08-30T01:02:16;29.93;;;27.17;;
35578;SDS011;21687;48.900;9.188;2023-08-30T01:04:42;30.23;;;27.23;;
35578;SDS011;21687;48.900;9.188;2023-08-30T01:07:10;30.10;;;26.93;;
35578;SDS011;21687;48.900;9.188;2023-08-30T01:09:36;30.10;;;27.20;;
35578;SDS011;21687;48.900;9.188;2023-08-30T01:14:42;28.93;;;26.07;;
35578;SDS011;21687;48.900;9.188;2023-08-30T01:17:24;29.23;;;26.43;;
35578;SDS011;21687;48.900;9.188;2023-08-30T01:20:01;27.87;;;25.17;;
35578;SDS011;21687;48.900;9.188;2023-08-30T01:28:11;29.83;;;26.53;;
35578;SDS011;21687;48.900;9.188;2023-08-30T01:30:39;28.73;;;25.93;;
35578;SDS011;21687;48.900;9.188;2023-08-30T01:33:07;29.60;;;26.53;;
35578;SDS011;21687;48.900;9.188;2023-08-30T01:35:34;27.77;;;25.07;;
35578;SDS011;21687;48.900;9.188;2023-08-30T01:38:05;28.93;;;25.90;;
35578;SDS011;21687;48.900;9.188;2023-08-30T01:40:36;31.43;;;26.67;;
35578;SDS011;21687;48.900;9.188;2023-08-30T01:43:08;31.23;;;27.70;;
35578;SDS011;21687;48.900;9.188;2023-08-30T01:45:39;30.47;;;27.37;;
35578;SDS011;21687;48.900;9.188;2023-08-30T01:48:09;28.83;;;26.03;;
35578;SDS011;21687;48.900;9.188;2023-08-30T01:50:38;30.10;;;27.03;;
35578;SDS011;21687;48.900;9.188;2023-08-30T01:53:06;34.97;;;29.07;;
35578;SDS011;21687;48.900;9.188;2023-08-30T01:55:33;37.23;;;31.10;;
35578;SDS011;21687;48.900;9.188;2023-08-30T01:58:01;33.27;;;29.67;;
35578;SDS011;21687;48.900;9.188;2023-08-30T02:00:29;34.43;;;30.73;;
35578;SDS011;21687;48.900;9.188;2023-08-30T02:02:56;36.13;;;30.30;;
35578;SDS011;21687;48.900;9.188;2023-08-30T02:05:22;34.37;;;30.63;;
35578;SDS011;21687;48.900;9.188;2023-08-30T02:08:00;37.13;;;30.73;;
35578;SDS011;21687;48.900;9.188;2023-08-30T02:10:35;32.80;;;29.23;;
35578;SDS011;21687;48.900;9.188;2023-08-30T02:13:04;34.00;;;29.97;;
35578;SDS011;21687;48.900;9.188;2023-08-30T02:15:32;34.33;;;30.57;;
35578;SDS011;21687;48.900;9.188;2023-08-30T02:18:01;36.27;;;29.20;;
35578;SDS011;21687;48.900;9.188;2023-08-30T02:20:29;37.20;;;31.80;;
35578;SDS011;21687;48.900;9.188;2023-08-30T02:23:00;37.63;;;32.60;;
35578;SDS011;21687;48.900;9.188;2023-08-30T02:25:26;35.57;;;30.93;;
35578;SDS011;21687;48.900;9.188;2023-08-30T02:27:52;41.70;;;31.63;;
35578;SDS011;21687;48.900;9.188;2023-08-30T02:30:19;37.70;;;30.57;;
35578;SDS011;21687;48.900;9.188;2023-08-30T02:32:45;34.77;;;30.40;;
35578;SDS011;21687;48.900;9.188;2023-08-30T02:35:11;35.33;;;30.20;;
35578;SDS011;21687;48.900;9.188;2023-08-30T02:37:38;35.87;;;30.60;;
35578;SDS011;21687;48.900;9.188;2023-08-30T02:40:05;36.93;;;30.63;;
35578;SDS011;21687;48.900;9.188;2023-08-30T02:42:32;42.57;;;33.10;;
35578;SDS011;21687;48.900;9.188;2023-08-30T02:44:58;47.97;;;35.03;;
35578;SDS011;21687;48.900;9.188;2023-08-30T02:47:24;42.97;;;34.20;;
35578;SDS011;21687;48.900;9.188;2023-08-30T02:49:51;43.30;;;31.87;;
35578;SDS011;21687;48.900;9.188;2023-08-30T02:52:17;43.80;;;34.13;;
35578;SDS011;21687;48.900;9.188;2023-08-30T02:54:43;43.03;;;33.23;;
35578;SDS011;21687;48.900;9.188;2023-08-30T02:57:10;39.90;;;33.60;;
35578;SDS011;21687;48.900;9.188;2023-08-30T02:59:36;44.80;;;34.53;;
35578;SDS011;21687;48.900;9.188;2023-08-30T03:02:02;48.00;;;35.33;;
35578;SDS011;21687;48.900;9.188;2023-08-30T03:04:29;48.40;;;34.67;;
35578;SDS011;21687;48.900;9.188;2023-08-30T03:06:55;43.00;;;33.40;;
35578;SDS011;21687;48.900;9.188;2023-08-30T03:09:21;44.80;;;34.90;;
35578;SDS011;21687;48.900;9.188;2023-08-30T03:11:48;49.07;;;36.73;;
35578;SDS011;21687;48.900;9.188;2023-08-30T03:14:14;43.30;;;35.57;;
35578;SDS011;21687;48.900;9.188;2023-08-30T03:16:42;48.63;;;36.77;;
35578;SDS011;21687;48.900;9.188;2023-08-30T03:19:10;46.87;;;35.90;;
35578;SDS011;21687;48.900;9.188;2023-08-30T03:21:36;46.57;;;36.63;;
35578;SDS011;21687;48.900;9.188;2023-08-30T03:24:03;45.83;;;35.73;;
35578;SDS011;21687;48.900;9.188;2023-08-30T03:26:29;40.97;;;33.20;;
35578;SDS011;21687;48.900;9.188;2023-08-30T03:28:56;40.03;;;31.93;;
35578;SDS011;21687;48.900;9.188;2023-08-30T03:31:22;44.27;;;33.47;;
35578;SDS011;21687;48.900;9.188;2023-08-30T03:33:48;46.67;;;35.40;;
35578;SDS011;21687;48.900;9.188;2023-08-30T03:36:16;41.47;;;33.40;;
35578;SDS011;21687;48.900;9.188;2023-08-30T03:38:44;40.17;;;32.73;;
35578;SDS011;21687;48.900;9.188;2023-08-30T03:41:11;41.80;;;33.20;;
35578;SDS011;21687;48.900;9.188;2023-08-30T03:43:37;38.00;;;32.87;;
35578;SDS011;21687;48.900;9.188;2023-08-30T03:46:04;36.23;;;32.27;;
35578;SDS011;21687;48.900;9.188;2023-08-30T03:48:30;37.10;;;32.97;;
35578;SDS011;21687;48.900;9.188;2023-08-30T03:50:57;35.43;;;31.53;;
35578;SDS011;21687;48.900;9.188;2023-08-30T03:53:24;38.97;;;30.83;;
35578;SDS011;21687;48.900;9.188;2023-08-30T03:55:50;35.23;;;31.43;;
35578;SDS011;21687;48.900;9.188;2023-08-30T03:58:18;33.43;;;29.83;;
35578;SDS011;21687;48.900;9.188;2023-08-30T04:00:45;34.70;;;31.00;;
35578;SDS011;21687;48.900;9.188;2023-08-30T04:03:13;33.27;;;29.87;;
35578;SDS011;21687;48.900;9.188;2023-08-30T04:05:41;34.20;;;30.40;;
35578;SDS011;21687;48.900;9.188;2023-08-30T04:08:09;34.13;;;30.13;;
35578;SDS011;21687;48.900;9.188;2023-08-30T04:10:38;34.97;;;30.37;;
35578;SDS011;21687;48.900;9.188;2023-08-30T04:13:06;35.57;;;29.07;;
35578;SDS011;21687;48.900;9.188;2023-08-30T04:15:34;33.50;;;29.93;;
35578;SDS011;21687;48.900;9.188;2023-08-30T04:18:03;31.07;;;27.73;;
35578;SDS011;21687;48.900;9.188;2023-08-30T04:20:30;37.50;;;31.80;;
35578;SDS011;21687;48.900;9.188;2023-08-30T04:22:57;38.40;;;30.73;;
35578;SDS011;21687;48.900;9.188;2023-08-30T04:25:27;30.37;;;27.20;;
35578;SDS011;21687;48.900;9.188;2023-08-30T04:27:54;32.70;;;27.07;;
35578;SDS011;21687;48.900;9.188;2023-08-30T04:30:20;29.87;;;26.73;;
35578;SDS011;21687;48.900;9.188;2023-08-30T04:32:47;30.57;;;26.57;;
35578;SDS011;21687;48.900;9.188;2023-08-30T04:35:13;38.13;;;29.20;;
35578;SDS011;21687;48.900;9.188;2023-08-30T04:37:39;30.30;;;27.30;;
35578;SDS011;21687;48.900;9.188;2023-08-30T04:40:08;34.90;;;30.60;;
35578;SDS011;21687;48.900;9.188;2023-08-30T04:42:35;34.73;;;30.40;;
35578;SDS011;21687;48.900;9.188;2023-08-30T04:45:03;31.90;;;28.57;;
35578;SDS011;21687;48.900;9.188;2023-08-30T04:47:29;32.00;;;28.60;;
35578;SDS011;21687;48.900;9.188;2023-08-30T04:49:57;33.70;;;29.30;;
35578;SDS011;21687;48.900;9.188;2023-08-30T04:52:23;33.10;;;29.50;;
35578;SDS011;21687;48.900;9.188;2023-08-30T04:54:50;31.60;;;28.23;;
35578;SDS011;21687;48.900;9.188;2023-08-30T04:57:16;35.27;;;28.40;;
35578;SDS011;21687;48.900;9.188;2023-08-30T04:59:43;33.60;;;29.27;;
35578;SDS011;21687;48.900;9.188;2023-08-30T05:02:10;34.77;;;31.17;;
35578;SDS011;21687;48.900;9.188;2023-08-30T05:04:37;33.63;;;30.23;;
35578;SDS011;21687;48.900;9.188;2023-08-30T05:07:05;33.23;;;29.63;;
35578;SDS011;21687;48.900;9.188;2023-08-30T05:09:31;32.50;;;29.20;;
35578;SDS011;21687;48.900;9.188;2023-08-30T05:11:59;31.93;;;28.43;;
35578;SDS011;21687;48.900;9.188;2023-08-30T05:14:26;32.40;;;28.90;;
35578;SDS011;21687;48.900;9.188;2023-08-30T05:16:52;31.00;;;27.80;;
35578;SDS011;21687;48.900;9.188;2023-08-30T05:19:19;33.83;;;28.97;;
35578;SDS011;21687;48.900;9.188;2023-08-30T05:21:45;32.37;;;28.90;;
35578;SDS011;21687;48.900;9.188;2023-08-30T05:24:12;32.83;;;29.43;;
35578;SDS011;21687;48.900;9.188;2023-08-30T05:26:38;31.77;;;28.37;;
35578;SDS011;21687;48.900;9.188;2023-08-30T05:29:04;30.63;;;27.60;;
35578;SDS011;21687;48.900;9.188;2023-08-30T05:31:30;30.63;;;26.77;;
35578;SDS011;21687;48.900;9.188;2023-08-30T05:33:57;29.83;;;27.03;;
35578;SDS011;21687;48.900;9.188;2023-08-30T05:36:23;29.40;;;26.50;;
35578;SDS011;21687;48.900;9.188;2023-08-30T05:38:49;29.03;;;26.10;;
35578;SDS011;21687;48.900;9.188;2023-08-30T05:41:15;28.40;;;25.43;;
35578;SDS011;21687;48.900;9.188;2023-08-30T05:43:42;27.77;;;24.97;;
35578;SDS011;21687;48.900;9.188;2023-08-30T05:46:08;28.10;;;25.30;;
35578;SDS011;21687;48.900;9.188;2023-08-30T05:48:40;27.03;;;24.13;;
35578;SDS011;21687;48.900;9.188;2023-08-30T05:51:07;26.70;;;24.13;;
35578;SDS011;21687;48.900;9.188;2023-08-30T05:53:34;26.33;;;23.90;;
35578;SDS011;21687;48.900;9.188;2023-08-30T05:56:01;26.03;;;23.20;;
35578;SDS011;21687;48.900;9.188;2023-08-30T05:58:28;24.97;;;22.77;;
35578;SDS011;21687;48.900;9.188;2023-08-30T06:00:55;24.73;;;22.30;;
35578;SDS011;21687;48.900;9.188;2023-08-30T06:03:22;22.97;;;20.80;;
35578;SDS011;21687;48.900;9.188;2023-08-30T06:05:48;23.20;;;21.03;;
35578;SDS011;21687;48.900;9.188;2023-08-30T06:08:14;23.40;;;21.20;;
35578;SDS011;21687;48.900;9.188;2023-08-30T06:10:43;22.37;;;20.20;;
35578;SDS011;21687;48.900;9.188;2023-08-30T06:13:09;20.93;;;18.87;;
35578;SDS011;21687;48.900;9.188;2023-08-30T06:15:35;19.97;;;17.87;;
35578;SDS011;21687;48.900;9.188;2023-08-30T06:18:05;19.37;;;17.43;;
35578;SDS011;21687;48.900;9.188;2023-08-30T06:20:32;21.53;;;17.70;;
35578;SDS011;21687;48.900;9.188;2023-08-30T06:22:58;19.20;;;17.50;;
35578;SDS011;21687;48.900;9.188;2023-08-30T06:25:28;17.23;;;15.80;;
35578;SDS011;21687;48.900;9.188;2023-08-30T06:27:55;17.53;;;16.03;;
35578;SDS011;21687;48.900;9.188;2023-08-30T06:30:24;16.90;;;15.30;;
35578;SDS011;21687;48.900;9.188;2023-08-30T06:32:51;18.20;;;16.43;;
35578;SDS011;21687;48.900;9.188;2023-08-30T06:35:17;17.77;;;16.23;;
35578;SDS011;21687;48.900;9.188;2023-08-30T06:37:43;18.77;;;16.97;;
35578;SDS011;21687;48.900;9.188;2023-08-30T06:40:10;16.47;;;14.97;;
35578;SDS011;21687;48.900;9.188;2023-08-30T06:42:36;15.70;;;14.20;;
35578;SDS011;21687;48.900;9.188;2023-08-30T06:45:04;14.13;;;12.83;;
35578;SDS011;21687;48.900;9.188;2023-08-30T06:47:30;14.10;;;12.90;;
35578;SDS011;21687;48.900;9.188;2023-08-30T06:49:57;14.40;;;13.13;;
35578;SDS011;21687;48.900;9.188;2023-08-30T06:52:24;14.20;;;12.90;;
35578;SDS011;21687;48.900;9.188;2023-08-30T06:54:50;13.00;;;11.90;;
35578;SDS011;21687;48.900;9.188;2023-08-30T06:57:16;11.60;;;10.53;;
35578;SDS011;21687;48.900;9.188;2023-08-30T06:59:42;11.57;;;10.40;;
35578;SDS011;21687;48.900;9.188;2023-08-30T07:02:09;10.37;;;9.47;;
35578;SDS011;21687;48.900;9.188;2023-08-30T07:04:36;10.77;;;9.87;;
35578;SDS011;21687;48.900;9.188;2023-08-30T07:07:02;14.37;;;9.90;;
35578;SDS011;21687;48.900;9.188;2023-08-30T07:09:28;11.47;;;9.37;;
35578;SDS011;21687;48.900;9.188;2023-08-30T07:11:57;10.13;;;9.10;;
35578;SDS011;21687;48.900;9.188;2023-08-30T07:14:24;14.93;;;11.37;;
35578;SDS011;21687;48.900;9.188;2023-08-30T07:16:51;10.30;;;9.30;;
35578;SDS011;21687;48.900;9.188;2023-08-30T07:19:18;10.47;;;9.40;;
35578;SDS011;21687;48.900;9.188;2023-08-30T07:21:44;10.30;;;8.67;;
35578;SDS011;21687;48.900;9.188;2023-08-30T07:24:11;9.83;;;8.93;;
35578;SDS011;21687;48.900;9.188;2023-08-30T07:26:37;8.77;;;8.07;;
35578;SDS011;21687;48.900;9.188;2023-08-30T07:29:04;10.10;;;9.03;;
35578;SDS011;21687;48.900;9.188;2023-08-30T07:31:31;9.77;;;8.77;;
35578;SDS011;21687;48.900;9.188;2023-08-30T07:33:58;8.67;;;7.73;;
35578;SDS011;21687;48.900;9.188;2023-08-30T07:36:28;9.97;;;7.83;;
35578;SDS011;21687;48.900;9.188;2023-08-30T07:38:55;8.73;;;7.93;;
35578;SDS011;21687;48.900;9.188;2023-08-30T07:41:22;9.47;;;8.57;;
35578;SDS011;21687;48.900;9.188;2023-08-30T07:43:48;10.03;;;9.03;;
35578;SDS011;21687;48.900;9.188;2023-08-30T07:46:14;11.93;;;8.97;;
35578;SDS011;21687;48.900;9.188;2023-08-30T07:48:41;9.50;;;8.50;;
35578;SDS011;21687;48.900;9.188;2023-08-30T07:51:07;8.97;;;8.03;;
35578;SDS011;21687;48.900;9.188;2023-08-30T07:53:33;9.93;;;8.23;;
35578;SDS011;21687;48.900;9.188;2023-08-30T07:56:00;9.73;;;8.83;;
35578;SDS011;21687;48.900;9.188;2023-08-30T07:58:26;9.50;;;8.60;;
35578;SDS011;21687;48.900;9.188;2023-08-30T08:00:52;14.73;;;8.63;;
35578;SDS011;21687;48.900;9.188;2023-08-30T08:03:20;9.33;;;8.57;;
35578;SDS011;21687;48.900;9.188;2023-08-30T08:05:47;11.17;;;8.67;;
35578;SDS011;21687;48.900;9.188;2023-08-30T08:08:14;9.23;;;8.10;;
35578;SDS011;21687;48.900;9.188;2023-08-30T08:10:44;10.87;;;8.10;;
35578;SDS011;21687;48.900;9.188;2023-08-30T08:13:11;9.50;;;7.50;;
35578;SDS011;21687;48.900;9.188;2023-08-30T08:15:38;8.70;;;7.83;;
35578;SDS011;21687;48.900;9.188;2023-08-30T08:18:04;12.80;;;7.43;;
35578;SDS011;21687;48.900;9.188;2023-08-30T08:20:31;8.03;;;6.67;;
35578;SDS011;21687;48.900;9.188;2023-08-30T08:22:58;13.57;;;7.03;;
35578;SDS011;21687;48.900;9.188;2023-08-30T08:25:24;7.90;;;7.10;;
35578;SDS011;21687;48.900;9.188;2023-08-30T08:27:51;7.80;;;7.07;;
35578;SDS011;21687;48.900;9.188;2023-08-30T08:30:17;7.97;;;7.37;;
35578;SDS011;21687;48.900;9.188;2023-08-30T08:32:45;9.70;;;7.33;;
35578;SDS011;21687;48.900;9.188;2023-08-30T08:35:15;8.40;;;7.60;;
35578;SDS011;21687;48.900;9.188;2023-08-30T08:37:41;7.67;;;6.97;;
35578;SDS011;21687;48.900;9.188;2023-08-30T08:40:08;6.80;;;6.20;;
35578;SDS011;21687;48.900;9.188;2023-08-30T08:42:35;6.37;;;5.70;;
35578;SDS011;21687;48.900;9.188;2023-08-30T08:45:03;7.97;;;5.70;;
35578;SDS011;21687;48.900;9.188;2023-08-30T08:47:30;9.03;;;6.30;;
35578;SDS011;21687;48.900;9.188;2023-08-30T08:49:57;6.67;;;6.00;;
35578;SDS011;21687;48.900;9.188;2023-08-30T08:52:24;7.33;;;5.80;;
35578;SDS011;21687;48.900;9.188;2023-08-30T08:54:52;6.57;;;5.97;;
35578;SDS011;21687;48.900;9.188;2023-08-30T08:57:19;7.20;;;5.53;;
35578;SDS011;21687;48.900;9.188;2023-08-30T08:59:46;5.73;;;5.20;;
35578;SDS011;21687;48.900;9.188;2023-08-30T09:02:13;5.23;;;4.83;;
35578;SDS011;21687;48.900;9.188;2023-08-30T09:04:40;5.63;;;5.13;;
35578;SDS011;21687;48.900;9.188;2023-08-30T09:07:06;5.77;;;4.90;;
35578;SDS011;21687;48.900;9.188;2023-08-30T09:09:33;4.90;;;4.17;;
35578;SDS011;21687;48.900;9.188;2023-08-30T09:12:00;4.90;;;4.40;;
35578;SDS011;21687;48.900;9.188;2023-08-30T09:14:26;4.83;;;4.43;;
35578;SDS011;21687;48.900;9.188;2023-08-30T09:16:56;5.07;;;4.57;;
35578;SDS011;21687;48.900;9.188;2023-08-30T09:19:24;6.23;;;4.50;;
35578;SDS011;21687;48.900;9.188;2023-08-30T09:21:51;5.70;;;4.27;;
35578;SDS011;21687;48.900;9.188;2023-08-30T09:24:18;5.53;;;4.30;;
35578;SDS011;21687;48.900;9.188;2023-08-30T09:26:48;4.87;;;3.80;;
35578;SDS011;21687;48.900;9.188;2023-08-30T09:29:20;4.50;;;4.20;;
35578;SDS011;21687;48.900;9.188;2023-08-30T09:31:50;5.40;;;4.13;;
35578;SDS011;21687;48.900;9.188;2023-08-30T09:34:23;5.07;;;3.87;;
35578;SDS011;21687;48.900;9.188;2023-08-30T09:36:50;5.40;;;4.30;;
35578;SDS011;21687;48.900;9.188;2023-08-30T09:39:18;3.90;;;3.37;;
35578;SDS011;21687;48.900;9.188;2023-08-30T09:41:46;4.00;;;3.63;;
35578;SDS011;21687;48.900;9.188;2023-08-30T09:44:14;6.57;;;3.60;;
35578;SDS011;21687;48.900;9.188;2023-08-30T09:46:48;4.83;;;3.60;;
35578;SDS011;21687;48.900;9.188;2023-08-30T09:49:20;7.23;;;3.63;;
35578;SDS011;21687;48.900;9.188;2023-08-30T09:51:48;6.63;;;3.10;;
35578;SDS011;21687;48.900;9.188;2023-08-30T09:54:21;4.17;;;3.07;;
35578;SDS011;21687;48.900;9.188;2023-08-30T09:56:51;4.07;;;3.63;;
35578;SDS011;21687;48.900;9.188;2023-08-30T09:59:22;5.00;;;3.27;;
35578;SDS011;21687;48.900;9.188;2023-08-30T10:01:49;3.93;;;3.30;;
35578;SDS011;21687;48.900;9.188;2023-08-30T10:04:20;3.97;;;3.20;;
35578;SDS011;21687;48.900;9.188;2023-08-30T10:06:48;3.90;;;3.43;;
35578;SDS011;21687;48.900;9.188;2023-08-30T10:09:15;3.30;;;3.00;;
35578;SDS011;21687;48.900;9.188;2023-08-30T10:11:42;3.90;;;2.70;;
35578;SDS011;21687;48.900;9.188;2023-08-30T10:14:11;6.53;;;2.90;;
35578;SDS011;21687;48.900;9.188;2023-08-30T10:19:14;3.53;;;3.00;;
35578;SDS011;21687;48.900;9.188;2023-08-30T10:21:44;3.37;;;2.87;;
35578;SDS011;21687;48.900;9.188;2023-08-30T10:24:14;3.20;;;2.80;;
35578;SDS011;21687;48.900;9.188;2023-08-30T10:26:43;4.00;;;3.30;;
35578;SDS011;21687;48.900;9.188;2023-08-30T10:29:11;3.50;;;2.33;;
35578;SDS011;21687;48.900;9.188;2023-08-30T10:31:40;3.87;;;2.57;;
35578;SDS011;21687;48.900;9.188;2023-08-30T10:34:13;4.83;;;2.70;;
35578;SDS011;21687;48.900;9.188;2023-08-30T10:36:41;5.57;;;2.27;;
35578;SDS011;21687;48.900;9.188;2023-08-30T10:39:12;2.90;;;2.40;;
35578;SDS011;21687;48.900;9.188;2023-08-30T10:41:56;2.97;;;2.10;;
35578;SDS011;21687;48.900;9.188;2023-08-30T10:44:22;2.80;;;2.43;;
35578;SDS011;21687;48.900;9.188;2023-08-30T10:46:53;2.83;;;2.63;;
35578;SDS011;21687;48.900;9.188;2023-08-30T10:49:20;2.57;;;2.37;;
35578;SDS011;21687;48.900;9.188;2023-08-30T10:51:56;2.50;;;2.30;;
35578;SDS011;21687;48.900;9.188;2023-08-30T10:54:24;2.30;;;2.10;;
35578;SDS011;21687;48.900;9.188;2023-08-30T10:59:22;5.87;;;2.47;;
35578;SDS011;21687;48.900;9.188;2023-08-30T11:01:50;4.10;;;2.47;;
35578;SDS011;21687;48.900;9.188;2023-08-30T11:04:18;2.80;;;2.60;;
35578;SDS011;21687;48.900;9.188;2023-08-30T11:06:47;2.47;;;2.27;;
35578;SDS011;21687;48.900;9.188;2023-08-30T11:09:18;2.87;;;2.40;;
35578;SDS011;21687;48.900;9.188;2023-08-30T11:11:46;3.07;;;2.30;;
35578;SDS011;21687;48.900;9.188;2023-08-30T11:14:14;2.60;;;2.40;;
35578;SDS011;21687;48.900;9.188;2023-08-30T11:16:41;4.57;;;2.47;;
35578;SDS011;21687;48.900;9.188;2023-08-30T11:19:09;3.27;;;2.03;;
35578;SDS011;21687;48.900;9.188;2023-08-30T11:21:37;3.57;;;2.30;;
35578;SDS011;21687;48.900;9.188;2023-08-30T11:24:05;2.23;;;2.13;;
35578;SDS011;21687;48.900;9.188;2023-08-30T11:26:32;3.00;;;2.60;;
35578;SDS011;21687;48.900;9.188;2023-08-30T11:29:08;2.93;;;2.40;;
35578;SDS011;21687;48.900;9.188;2023-08-30T11:31:34;2.73;;;2.53;;
35578;SDS011;21687;48.900;9.188;2023-08-30T11:34:01;3.67;;;2.97;;
35578;SDS011;21687;48.900;9.188;2023-08-30T11:36:29;3.50;;;2.80;;
35578;SDS011;21687;48.900;9.188;2023-08-30T11:38:56;3.10;;;2.90;;
35578;SDS011;21687;48.900;9.188;2023-08-30T11:41:23;3.03;;;2.53;;
35578;SDS011;21687;48.900;9.188;2023-08-30T11:43:51;4.87;;;2.93;;
35578;SDS011;21687;48.900;9.188;2023-08-30T11:46:18;5.53;;;2.90;;
35578;SDS011;21687;48.900;9.188;2023-08-30T11:48:46;4.87;;;2.60;;
35578;SDS011;21687;48.900;9.188;2023-08-30T11:51:14;3.00;;;2.63;;
35578;SDS011;21687;48.900;9.188;2023-08-30T11:53:41;2.83;;;2.57;;
35578;SDS011;21687;48.900;9.188;2023-08-30T11:56:08;5.10;;;2.80;;
35578;SDS011;21687;48.900;9.188;2023-08-30T11:58:35;3.10;;;2.80;;
35578;SDS011;21687;48.900;9.188;2023-08-30T12:01:06;2.83;;;2.57;;
35578;SDS011;21687;48.900;9.188;2023-08-30T12:03:33;2.80;;;2.60;;
35578;SDS011;21687;48.900;9.188;2023-08-30T12:05:59;5.03;;;2.80;;
35578;SDS011;21687;48.900;9.188;2023-08-30T12:08:27;3.33;;;2.60;;
35578;SDS011;21687;48.900;9.188;2023-08-30T12:10:55;3.47;;;2.80;;
35578;SDS011;21687;48.900;9.188;2023-08-30T12:13:22;3.33;;;2.67;;
35578;SDS011;21687;48.900;9.188;2023-08-30T12:15:49;3.00;;;2.80;;
35578;SDS011;21687;48.900;9.188;2023-08-30T12:18:20;3.53;;;3.07;;
35578;SDS011;21687;48.900;9.188;2023-08-30T12:20:52;3.70;;;3.23;;
35578;SDS011;21687;48.900;9.188;2023-08-30T12:23:23;3.53;;;3.23;;
35578;SDS011;21687;48.900;9.188;2023-08-30T12:26:01;3.17;;;2.93;;
35578;SDS011;21687;48.900;9.188;2023-08-30T12:28:32;3.23;;;3.03;;
35578;SDS011;21687;48.900;9.188;2023-08-30T12:31:03;4.20;;;3.80;;
35578;SDS011;21687;48.900;9.188;2023-08-30T12:33:30;5.03;;;4.53;;
35578;SDS011;21687;48.900;9.188;2023-08-30T12:35:56;4.17;;;3.87;;
35578;SDS011;21687;48.900;9.188;2023-08-30T12:38:23;4.17;;;3.77;;
35578;SDS011;21687;48.900;9.188;2023-08-30T12:40:51;4.17;;;3.87;;
35578;SDS011;21687;48.900;9.188;2023-08-30T12:43:21;3.27;;;2.80;;
35578;SDS011;21687;48.900;9.188;2023-08-30T12:45:48;4.40;;;3.10;;
35578;SDS011;21687;48.900;9.188;2023-08-30T12:48:15;3.17;;;2.87;;
35578;SDS011;21687;48.900;9.188;2023-08-30T12:50:43;3.37;;;2.60;;
35578;SDS011;21687;48.900;9.188;2023-08-30T12:53:11;4.13;;;2.90;;
35578;SDS011;21687;48.900;9.188;2023-08-30T12:55:37;3.23;;;3.00;;
35578;SDS011;21687;48.900;9.188;2023-08-30T12:58:06;3.43;;;2.90;;
35578;SDS011;21687;48.900;9.188;2023-08-30T13:00:33;3.00;;;2.80;;
35578;SDS011;21687;48.900;9.188;2023-08-30T13:03:00;3.63;;;2.97;;
35578;SDS011;21687;48.900;9.188;2023-08-30T13:05:28;5.60;;;2.90;;
35578;SDS011;21687;48.900;9.188;2023-08-30T13:08:00;3.00;;;2.60;;
35578;SDS011;21687;48.900;9.188;2023-08-30T13:10:27;4.10;;;3.00;;
35578;SDS011;21687;48.900;9.188;2023-08-30T13:12:54;3.20;;;2.93;;
35578;SDS011;21687;48.900;9.188;2023-08-30T13:15:20;4.17;;;3.23;;
35578;SDS011;21687;48.900;9.188;2023-08-30T13:17:46;3.57;;;2.83;;
35578;SDS011;21687;48.900;9.188;2023-08-30T13:20:13;4.70;;;2.83;;
35578;SDS011;21687;48.900;9.188;2023-08-30T13:22:39;6.17;;;2.80;;
35578;SDS011;21687;48.900;9.188;2023-08-30T13:25:06;3.90;;;3.40;;
35578;SDS011;21687;48.900;9.188;2023-08-30T13:27:33;3.20;;;2.90;;
35578;SDS011;21687;48.900;9.188;2023-08-30T13:30:00;3.00;;;2.70;;
35578;SDS011;21687;48.900;9.188;2023-08-30T13:32:26;4.00;;;2.90;;
35578;SDS011;21687;48.900;9.188;2023-08-30T13:34:52;2.90;;;2.70;;
35578;SDS011;21687;48.900;9.188;2023-08-30T13:37:19;3.77;;;2.73;;
35578;SDS011;21687;48.900;9.188;2023-08-30T13:39:45;3.07;;;2.87;;
35578;SDS011;21687;48.900;9.188;2023-08-30T13:42:11;4.47;;;2.83;;
35578;SDS011;21687;48.900;9.188;2023-08-30T13:44:38;2.73;;;2.53;;
35578;SDS011;21687;48.900;9.188;2023-08-30T13:47:06;2.67;;;2.47;;
35578;SDS011;21687;48.900;9.188;2023-08-30T13:49:33;4.50;;;2.80;;
35578;SDS011;21687;48.900;9.188;2023-08-30T13:52:00;3.47;;;2.80;;
35578;SDS011;21687;48.900;9.188;2023-08-30T13:54:26;2.70;;;2.40;;
35578;SDS011;21687;48.900;9.188;2023-08-30T13:56:56;3.30;;;2.60;;
35578;SDS011;21687;48.900;9.188;2023-08-30T13:59:23;6.30;;;2.73;;
35578;SDS011;21687;48.900;9.188;2023-08-30T14:01:49;2.47;;;2.27;;
35578;SDS011;21687;48.900;9.188;2023-08-30T14:04:15;2.70;;;2.40;;
35578;SDS011;21687;48.900;9.188;2023-08-30T14:06:42;2.73;;;2.40;;
35578;SDS011;21687;48.900;9.188;2023-08-30T14:09:08;3.17;;;2.47;;
35578;SDS011;21687;48.900;9.188;2023-08-30T14:11:35;5.00;;;2.60;;
35578;SDS011;21687;48.900;9.188;2023-08-30T14:14:03;2.43;;;2.30;;
35578;SDS011;21687;48.900;9.188;2023-08-30T14:16:29;3.13;;;2.77;;
35578;SDS011;21687;48.900;9.188;2023-08-30T14:18:55;3.17;;;2.70;;
35578;SDS011;21687;48.900;9.188;2023-08-30T14:21:25;5.63;;;2.60;;
35578;SDS011;21687;48.900;9.188;2023-08-30T14:23:52;2.90;;;2.60;;
35578;SDS011;21687;48.900;9.188;2023-08-30T14:26:19;2.63;;;2.20;;
35578;SDS011;21687;48.900;9.188;2023-08-30T14:28:45;2.90;;;2.53;;
35578;SDS011;21687;48.900;9.188;2023-08-30T14:31:11;2.67;;;2.47;;
35578;SDS011;21687;48.900;9.188;2023-08-30T14:33:41;2.57;;;2.43;;
35578;SDS011;21687;48.900;9.188;2023-08-30T14:36:12;2.93;;;2.70;;
35578;SDS011;21687;48.900;9.188;2023-08-30T14:38:39;4.50;;;2.63;;
35578;SDS011;21687;48.900;9.188;2023-08-30T14:41:06;25.47;;;3.40;;
35578;SDS011;21687;48.900;9.188;2023-08-30T14:43:33;3.60;;;2.83;;
35578;SDS011;21687;48.900;9.188;2023-08-30T14:46:00;3.80;;;2.90;;
35578;SDS011;21687;48.900;9.188;2023-08-30T14:48:32;2.97;;;2.67;;
35578;SDS011;21687;48.900;9.188;2023-08-30T14:50:58;3.17;;;2.90;;